Time;durP1;ratioP1;P1;durP2;ratioP2;P2;SDS_P1;SDS_P2;PMS_P1;PMS_P2;Temp;Humidity;BMP_temperature;BMP_pressure;BME280_temperature;BME280_humidity;BME280_pressure;Samples;Min_cycle;Max_cycle;Signal;HPM_P1;HPM_P2
2022/01/05 00:00:08;;;;;;;18.58;2.40;;;4.70;99.90;;;;;;5081575;27;20507;-83
2022/01/05 00:02:35;;;;;;;25.40;5.15;;;4.80;99.90;;;;;;5130864;27;20122;-84
2022/01/05 00:05:01;;;;;;;14.00;1.98;;;4.80;99.90;;;;;;5114391;27;20051;-81
2022/01/05 00:07:27;;;;;;;18.00;2.70;;;4.80;99.90;;;;;;5134441;27;20080;-81
2022/01/05 00:09:52;;;;;;;22.23;2.90;;;4.80;99.90;;;;;;5103613;27;20043;-91
2022/01/05 00:12:18;;;;;;;14.80;2.95;;;4.60;99.90;;;;;;5112992;27;20091;-81
2022/01/05 00:14:44;;;;;;;21.65;3.53;;;4.60;99.90;;;;;;5088219;27;20042;-80
2022/01/05 00:17:09;;;;;;;15.55;3.20;;;4.60;99.90;;;;;;5098904;27;20046;-83
2022/01/05 00:19:36;;;;;;;16.33;3.03;;;4.70;99.90;;;;;;5099161;27;20038;-82
2022/01/05 00:22:03;;;;;;;16.45;2.95;;;4.70;99.90;;;;;;5119039;27;20085;-81
2022/01/05 00:24:28;;;;;;;22.08;3.38;;;4.70;99.90;;;;;;5100419;27;20483;-82
2022/01/05 00:26:54;;;;;;;21.33;2.78;;;4.70;99.90;;;;;;5087441;27;20043;-83
2022/01/05 00:29:20;;;;;;;22.42;2.97;;;4.70;99.90;;;;;;5096395;27;20045;-80
2022/01/05 00:31:46;;;;;;;22.13;4.15;;;4.70;99.90;;;;;;5131164;27;20096;-82
2022/01/05 00:34:12;;;;;;;12.02;2.70;;;4.70;99.90;;;;;;5133036;27;20042;-82
2022/01/05 00:36:39;;;;;;;18.85;2.85;;;4.70;99.90;;;;;;5109016;27;20583;-83
2022/01/05 00:39:05;;;;;;;12.35;2.38;;;4.60;99.90;;;;;;5118105;27;20039;-81
2022/01/05 00:41:30;;;;;;;19.77;3.63;;;4.60;99.90;;;;;;5124076;27;20047;-81
2022/01/05 00:43:56;;;;;;;12.32;2.95;;;4.60;99.90;;;;;;5106904;27;20039;-82
2022/01/05 00:46:22;;;;;;;20.92;3.83;;;4.70;99.90;;;;;;5101359;27;20078;-80
2022/01/05 00:48:47;;;;;;;19.50;3.33;;;4.60;99.90;;;;;;5102155;27;20053;-82
2022/01/05 00:51:15;;;;;;;16.80;3.42;;;4.60;99.90;;;;;;5132010;27;20039;-84
2022/01/05 00:53:41;;;;;;;12.48;3.00;;;4.70;99.90;;;;;;5086854;28;20139;-81
2022/01/05 00:56:07;;;;;;;15.63;2.85;;;4.60;99.90;;;;;;5115430;28;20487;-81
2022/01/05 00:58:33;;;;;;;18.70;2.88;;;4.70;99.90;;;;;;5101401;27;20121;-83
2022/01/05 01:00:59;;;;;;;20.58;3.35;;;4.60;99.90;;;;;;5129329;27;20046;-88
2022/01/05 01:03:28;;;;;;;14.40;3.03;;;4.60;99.90;;;;;;5133699;27;20057;-82
2022/01/05 01:05:55;;;;;;;26.20;4.47;;;4.60;99.90;;;;;;5117885;27;20129;-81
2022/01/05 01:08:21;;;;;;;12.90;2.38;;;4.60;99.90;;;;;;5119561;27;20124;-83
2022/01/05 01:10:47;;;;;;;18.35;2.90;;;4.60;99.90;;;;;;5133965;27;20091;-82
2022/01/05 01:13:16;;;;;;;17.85;3.10;;;4.60;99.90;;;;;;5139669;27;20050;-82
2022/01/05 01:15:44;;;;;;;17.38;3.17;;;4.60;99.90;;;;;;5108323;27;20461;-82
2022/01/05 01:18:10;;;;;;;18.77;2.97;;;4.70;99.90;;;;;;5139448;27;20039;-83
2022/01/05 01:20:36;;;;;;;16.20;2.45;;;4.70;99.90;;;;;;5102569;27;20100;-79
2022/01/05 01:23:01;;;;;;;19.60;3.33;;;4.60;99.90;;;;;;5130957;27;20073;-88
2022/01/05 01:25:27;;;;;;;18.17;3.25;;;4.60;99.90;;;;;;5102171;27;20524;-84
2022/01/05 01:27:53;;;;;;;17.15;3.20;;;4.60;99.90;;;;;;5103500;27;20096;-84
2022/01/05 01:30:19;;;;;;;14.55;2.88;;;4.60;99.90;;;;;;5092247;27;20409;-84
2022/01/05 01:32:44;;;;;;;15.55;2.92;;;4.70;99.90;;;;;;5121033;27;20066;-81
2022/01/05 01:35:10;;;;;;;17.73;2.80;;;4.60;99.90;;;;;;5111702;27;20126;-81
2022/01/05 01:37:36;;;;;;;18.45;2.53;;;4.60;99.90;;;;;;5111475;27;20038;-83
2022/01/05 01:40:05;;;;;;;16.40;3.17;;;4.60;99.90;;;;;;5133544;27;20091;-80
2022/01/05 01:42:31;;;;;;;20.02;2.97;;;4.70;99.90;;;;;;5113032;27;20050;-85
2022/01/05 01:44:57;;;;;;;18.70;2.85;;;4.70;99.90;;;;;;5137418;27;20050;-82
2022/01/05 01:47:23;;;;;;;26.08;4.18;;;4.80;99.90;;;;;;5119682;27;20483;-82
2022/01/05 01:49:48;;;;;;;20.42;3.40;;;4.70;99.90;;;;;;5119896;27;20035;-85
2022/01/05 01:52:14;;;;;;;19.45;3.08;;;4.80;99.90;;;;;;5106698;27;20123;-83
2022/01/05 01:54:40;;;;;;;22.45;3.75;;;4.90;99.90;;;;;;5109515;27;20051;-83
2022/01/05 01:57:07;;;;;;;20.83;3.42;;;4.90;99.90;;;;;;5085704;27;20092;-86
2022/01/05 01:59:33;;;;;;;17.95;3.17;;;4.90;99.90;;;;;;5091985;27;20035;-83
2022/01/05 02:02:00;;;;;;;19.38;2.88;;;4.90;99.90;;;;;;5103882;27;20034;-80
2022/01/05 02:04:25;;;;;;;22.27;4.40;;;5.00;99.90;;;;;;5116575;27;20885;-82
2022/01/05 02:06:52;;;;;;;21.98;3.35;;;5.00;99.90;;;;;;5123456;27;20085;-81
2022/01/05 02:09:18;;;;;;;16.90;3.35;;;5.00;99.90;;;;;;5117073;27;20482;-86
2022/01/05 02:11:44;;;;;;;19.65;3.90;;;5.00;99.90;;;;;;5125264;27;20487;-81
2022/01/05 02:14:10;;;;;;;20.98;3.55;;;5.00;99.90;;;;;;5097925;27;20045;-83
2022/01/05 02:16:40;;;;;;;24.20;3.47;;;5.10;99.90;;;;;;5136163;27;20041;-80
2022/01/05 02:19:06;;;;;;;27.27;3.95;;;5.10;99.90;;;;;;5131157;27;20097;-81
2022/01/05 02:21:34;;;;;;;22.73;3.08;;;4.90;99.90;;;;;;5103561;27;20046;-81
2022/01/05 02:24:01;;;;;;;21.55;3.22;;;4.70;99.90;;;;;;5134385;27;20547;-81
2022/01/05 02:26:26;;;;;;;22.30;3.70;;;4.60;99.90;;;;;;5107296;27;20037;-82
2022/01/05 02:28:52;;;;;;;20.73;3.97;;;4.60;99.90;;;;;;5121342;27;20129;-81
2022/01/05 02:31:18;;;;;;;20.60;2.78;;;4.60;99.90;;;;;;5117475;27;20511;-83
2022/01/05 02:33:44;;;;;;;18.75;3.53;;;4.70;99.90;;;;;;5091286;27;20050;-84
2022/01/05 02:36:14;;;;;;;19.10;2.92;;;4.70;99.90;;;;;;5092530;27;20084;-83
2022/01/05 02:38:40;;;;;;;18.02;2.80;;;4.70;99.90;;;;;;5104633;27;20391;-84
2022/01/05 02:41:10;;;;;;;14.88;2.38;;;4.70;99.90;;;;;;5117081;27;20046;-85
2022/01/05 02:43:38;;;;;;;24.30;2.70;;;4.50;99.90;;;;;;5115349;27;20046;-82
2022/01/05 02:46:05;;;;;;;20.85;3.10;;;4.40;99.90;;;;;;5127150;27;20046;-83
2022/01/05 02:48:32;;;;;;;25.38;3.75;;;4.30;99.90;;;;;;5137486;27;20431;-86
2022/01/05 02:50:59;;;;;;;34.78;4.65;;;4.20;99.90;;;;;;5114408;27;20051;-85
2022/01/05 02:53:25;;;;;;;25.90;3.67;;;4.20;99.90;;;;;;5108182;27;20042;-84
2022/01/05 02:55:52;;;;;;;23.50;3.22;;;4.30;99.90;;;;;;5120641;27;20038;-82
2022/01/05 02:58:18;;;;;;;19.83;2.90;;;4.30;99.90;;;;;;5132928;27;20043;-84
2022/01/05 03:00:44;;;;;;;24.58;4.13;;;4.30;99.90;;;;;;5126069;27;20111;-82
2022/01/05 03:03:10;;;;;;;26.60;3.13;;;4.30;99.90;;;;;;5134535;27;20150;-87
2022/01/05 03:05:36;;;;;;;17.88;3.28;;;4.30;99.90;;;;;;5128696;27;20047;-83
2022/01/05 03:08:02;;;;;;;23.90;3.28;;;4.30;99.90;;;;;;5127245;27;20030;-82
2022/01/05 03:10:28;;;;;;;33.65;4.20;;;4.20;99.90;;;;;;5116960;27;20391;-82
2022/01/05 03:12:54;;;;;;;29.70;4.20;;;4.20;99.90;;;;;;5090206;27;20043;-84
2022/01/05 03:15:19;;;;;;;16.33;2.47;;;4.30;99.90;;;;;;5128894;27;20039;-80
2022/01/05 03:17:45;;;;;;;15.60;2.33;;;4.30;99.90;;;;;;5085677;27;20391;-81
2022/01/05 03:20:13;;;;;;;12.77;2.38;;;4.30;99.90;;;;;;5096618;27;20050;-83
2022/01/05 03:22:39;;;;;;;16.40;2.25;;;4.30;99.90;;;;;;5136134;27;20046;-83
2022/01/05 03:25:07;;;;;;;13.95;2.20;;;4.40;99.90;;;;;;5103189;27;20391;-84
2022/01/05 03:27:33;;;;;;;23.13;3.65;;;4.40;99.90;;;;;;5092614;27;20512;-83
2022/01/05 03:29:59;;;;;;;18.65;2.35;;;4.30;99.90;;;;;;5114816;27;20051;-83
2022/01/05 03:32:30;;;;;;;16.98;2.78;;;4.20;99.90;;;;;;5116168;27;20038;-84
2022/01/05 03:34:55;;;;;;;24.60;2.97;;;4.20;99.90;;;;;;5112292;27;20047;-83
2022/01/05 03:37:21;;;;;;;27.65;3.80;;;4.10;99.90;;;;;;5126786;27;20074;-83
2022/01/05 03:39:47;;;;;;;15.48;2.28;;;4.10;99.90;;;;;;5091936;27;20051;-83
2022/01/05 03:42:12;;;;;;;18.92;2.97;;;4.10;99.90;;;;;;5093689;27;20034;-83
2022/01/05 03:44:38;;;;;;;16.05;2.67;;;4.10;99.90;;;;;;5128685;27;20047;-81
2022/01/05 03:47:04;;;;;;;25.27;4.55;;;4.20;99.90;;;;;;5123927;27;20051;-85
2022/01/05 03:49:30;;;;;;;22.52;3.50;;;4.10;99.90;;;;;;5117130;27;20065;-83
2022/01/05 03:51:56;;;;;;;23.75;3.13;;;4.20;99.90;;;;;;5102227;27;20151;-84
2022/01/05 03:54:21;;;;;;;16.60;2.92;;;4.10;99.90;;;;;;5098668;27;20043;-83
2022/01/05 03:56:47;;;;;;;14.50;2.38;;;4.20;99.90;;;;;;5120007;27;20532;-83
2022/01/05 03:59:12;;;;;;;14.00;2.33;;;4.30;99.90;;;;;;5126472;27;20133;-83
2022/01/05 04:01:38;;;;;;;14.85;2.75;;;4.30;99.90;;;;;;5102732;27;20050;-85
2022/01/05 04:04:04;;;;;;;12.77;2.53;;;4.40;99.90;;;;;;5102063;27;20041;-85
2022/01/05 04:06:30;;;;;;;17.35;3.30;;;4.40;99.90;;;;;;5100373;27;20108;-84
2022/01/05 04:08:55;;;;;;;22.90;3.13;;;4.50;99.90;;;;;;5118079;27;20047;-86
2022/01/05 04:11:21;;;;;;;23.75;3.13;;;4.40;99.90;;;;;;5130581;27;20046;-83
2022/01/05 04:13:46;;;;;;;13.55;2.17;;;4.40;99.90;;;;;;5119106;27;20043;-83
2022/01/05 04:16:12;;;;;;;17.60;3.63;;;4.30;99.90;;;;;;5101342;27;20046;-83
2022/01/05 04:18:38;;;;;;;19.20;2.88;;;4.30;99.90;;;;;;5086359;27;20102;-81
2022/01/05 04:21:04;;;;;;;32.92;3.92;;;4.30;99.90;;;;;;5125944;27;20463;-82
2022/01/05 04:23:29;;;;;;;25.40;3.75;;;4.20;99.90;;;;;;5113407;27;20483;-81
2022/01/05 04:25:55;;;;;;;29.30;4.03;;;4.20;99.90;;;;;;5100634;27;20042;-81
2022/01/05 04:28:21;;;;;;;30.52;3.67;;;4.40;99.90;;;;;;5084872;27;20043;-81
2022/01/05 04:30:47;;;;;;;28.05;4.43;;;4.40;99.90;;;;;;5099687;27;20054;-80
2022/01/05 04:33:12;;;;;;;22.60;3.72;;;4.50;99.90;;;;;;5091418;28;20043;-81
2022/01/05 04:35:38;;;;;;;23.92;3.25;;;4.70;99.90;;;;;;5108151;27;20047;-84
2022/01/05 04:38:04;;;;;;;27.23;4.60;;;4.70;99.90;;;;;;5094972;27;20047;-83
2022/01/05 04:40:31;;;;;;;20.48;2.97;;;4.50;99.90;;;;;;5081837;28;20044;-83
2022/01/05 04:42:57;;;;;;;20.73;2.95;;;4.50;99.90;;;;;;5092674;27;20072;-82
2022/01/05 04:45:23;;;;;;;32.38;3.80;;;4.50;99.90;;;;;;5135243;27;20141;-80
2022/01/05 04:47:49;;;;;;;18.17;2.85;;;4.40;99.90;;;;;;5115507;27;20129;-82
2022/01/05 04:50:15;;;;;;;17.33;3.30;;;4.40;99.90;;;;;;5135965;27;20042;-81
2022/01/05 04:52:41;;;;;;;26.35;3.35;;;4.30;99.90;;;;;;5115380;27;20042;-82
2022/01/05 04:55:08;;;;;;;17.60;3.00;;;4.30;99.90;;;;;;5133046;27;20078;-80
2022/01/05 04:57:34;;;;;;;31.65;4.35;;;4.30;99.90;;;;;;5099403;27;20047;-81
2022/01/05 05:00:00;;;;;;;27.02;3.40;;;4.30;99.90;;;;;;5128611;27;20042;-82
2022/01/05 05:02:25;;;;;;;21.48;3.97;;;4.30;99.90;;;;;;5096947;27;20467;-81
2022/01/05 05:04:51;;;;;;;31.85;5.55;;;4.40;99.90;;;;;;5094434;27;20039;-80
2022/01/05 05:07:17;;;;;;;15.63;3.00;;;4.40;99.90;;;;;;5117535;27;20147;-84
2022/01/05 05:09:43;;;;;;;22.50;2.70;;;4.30;99.90;;;;;;5114903;27;20091;-81
2022/01/05 05:12:09;;;;;;;18.17;1.95;;;3.80;99.90;;;;;;5133078;27;20046;-82
2022/01/05 05:14:35;;;;;;;13.07;1.60;;;3.60;99.90;;;;;;5090861;28;20134;-81
2022/01/05 05:17:00;;;;;;;19.15;2.47;;;3.40;99.90;;;;;;5111879;27;20543;-81
2022/01/05 05:19:26;;;;;;;17.23;1.95;;;3.40;99.90;;;;;;5114551;27;20122;-81
2022/01/05 05:21:52;;;;;;;18.27;2.70;;;3.50;99.90;;;;;;5129345;27;20038;-81
2022/01/05 05:24:18;;;;;;;24.70;2.85;;;3.70;99.90;;;;;;5109735;28;20506;-82
2022/01/05 05:26:43;;;;;;;28.23;4.30;;;3.80;99.90;;;;;;5102365;28;20054;-83
2022/01/05 05:29:09;;;;;;;39.38;4.00;;;4.00;99.90;;;;;;5081595;27;20054;-84
2022/01/05 05:31:35;;;;;;;23.42;3.38;;;4.10;99.90;;;;;;5130923;27;20043;-83
2022/01/05 05:34:01;;;;;;;34.38;4.82;;;4.30;99.90;;;;;;5096512;27;20053;-83
2022/01/05 05:36:26;;;;;;;34.50;4.90;;;4.40;99.90;;;;;;5107529;27;20059;-86
2022/01/05 05:38:52;;;;;;;36.67;4.32;;;4.50;99.90;;;;;;5115614;27;20119;-82
2022/01/05 05:41:18;;;;;;;31.05;3.72;;;4.50;99.90;;;;;;5106319;27;20080;-82
2022/01/05 05:43:45;;;;;;;29.17;3.80;;;4.60;99.90;;;;;;5136476;27;20038;-81
2022/01/05 05:46:10;;;;;;;39.00;4.18;;;4.60;99.90;;;;;;5108174;27;20085;-81
2022/01/05 05:48:36;;;;;;;40.03;5.45;;;4.60;99.90;;;;;;5110911;27;20499;-83
2022/01/05 05:51:02;;;;;;;27.95;5.65;;;4.60;99.90;;;;;;5134107;27;20117;-84
2022/01/05 05:53:28;;;;;;;34.17;4.18;;;4.70;99.90;;;;;;5116385;27;20142;-83
2022/01/05 05:55:54;;;;;;;42.97;5.30;;;4.70;99.90;;;;;;5088102;27;20067;-87
2022/01/05 05:58:19;;;;;;;37.60;5.25;;;4.70;99.90;;;;;;5111114;27;20061;-86
2022/01/05 06:00:45;;;;;;;18.73;2.53;;;4.70;99.90;;;;;;5111452;27;20482;-84
2022/01/05 06:03:11;;;;;;;21.85;3.03;;;4.70;99.90;;;;;;5088428;27;20035;-82
2022/01/05 06:05:36;;;;;;;16.15;2.35;;;4.70;99.90;;;;;;5101945;27;20397;-83
2022/01/05 06:08:02;;;;;;;24.55;2.58;;;4.70;99.90;;;;;;5116185;27;20086;-80
2022/01/05 06:10:28;;;;;;;24.50;3.28;;;4.70;99.90;;;;;;5099145;27;20047;-86
2022/01/05 06:12:53;;;;;;;25.52;3.33;;;4.60;99.90;;;;;;5113850;27;20047;-85
2022/01/05 06:15:19;;;;;;;27.10;3.20;;;4.70;99.90;;;;;;5108346;27;20035;-81
2022/01/05 06:17:45;;;;;;;30.33;3.80;;;4.70;99.90;;;;;;5110289;27;20053;-81
2022/01/05 06:20:11;;;;;;;24.67;3.25;;;4.80;99.90;;;;;;5095092;27;20039;-82
2022/01/05 06:22:39;;;;;;;32.88;4.55;;;4.80;99.90;;;;;;5116114;27;20129;-80
2022/01/05 06:25:05;;;;;;;27.50;3.90;;;4.90;99.90;;;;;;5117473;27;20483;-82
2022/01/05 06:27:31;;;;;;;18.85;2.92;;;4.90;99.90;;;;;;5090016;27;20064;-81
2022/01/05 06:29:57;;;;;;;21.17;3.92;;;4.80;99.90;;;;;;5084084;27;20043;-84
2022/01/05 06:32:22;;;;;;;17.45;3.05;;;4.80;99.90;;;;;;5076935;27;20088;-81
2022/01/05 06:34:48;;;;;;;15.02;2.03;;;4.60;99.90;;;;;;5097610;27;20050;-81
2022/01/05 06:37:16;;;;;;;14.88;3.50;;;4.70;99.90;;;;;;5087460;27;20063;-85
2022/01/05 06:39:42;;;;;;;19.75;2.20;;;4.60;99.90;;;;;;5114366;28;20052;-86
2022/01/05 06:42:08;;;;;;;17.02;2.42;;;4.60;99.90;;;;;;5091498;27;20038;-81
2022/01/05 06:44:33;;;;;;;20.13;2.97;;;4.60;99.90;;;;;;5115842;27;20096;-82
2022/01/05 06:46:59;;;;;;;22.38;2.72;;;4.60;99.90;;;;;;5087328;28;20040;-82
2022/01/05 06:49:25;;;;;;;34.47;4.07;;;4.60;99.90;;;;;;5067973;28;20047;-83
2022/01/05 06:51:51;;;;;;;28.08;3.80;;;4.60;99.90;;;;;;5097010;28;20499;-84
2022/01/05 06:54:17;;;;;;;20.73;2.88;;;4.80;99.90;;;;;;5117652;27;20075;-83
2022/01/05 06:56:43;;;;;;;15.35;2.03;;;4.90;99.90;;;;;;5110652;27;20506;-82
2022/01/05 06:59:08;;;;;;;17.50;2.88;;;4.90;99.90;;;;;;5134806;27;20043;-82
2022/01/05 07:01:34;;;;;;;16.33;3.17;;;4.80;99.90;;;;;;5121283;27;20048;-81
2022/01/05 07:04:01;;;;;;;24.38;2.83;;;4.70;99.90;;;;;;5111651;27;20063;-81
2022/01/05 07:06:27;;;;;;;24.73;2.75;;;4.70;99.90;;;;;;5081215;27;20076;-82
2022/01/05 07:08:53;;;;;;;30.65;3.70;;;4.70;99.90;;;;;;5082939;27;20047;-80
2022/01/05 07:11:18;;;;;;;19.92;2.83;;;4.70;99.90;;;;;;5083362;28;20048;-81
2022/01/05 07:13:44;;;;;;;24.35;3.13;;;4.80;99.90;;;;;;5105078;28;20075;-81
2022/01/05 07:16:10;;;;;;;31.92;4.15;;;4.90;99.90;;;;;;5127807;27;20035;-82
2022/01/05 07:18:35;;;;;;;38.55;5.20;;;4.90;99.90;;;;;;5080613;27;20463;-84
2022/01/05 07:21:01;;;;;;;29.05;4.10;;;5.00;99.90;;;;;;5108486;28;20077;-82
2022/01/05 07:23:27;;;;;;;32.67;5.82;;;5.10;99.90;;;;;;5097180;27;20055;-82
2022/01/05 07:25:52;;;;;;;25.63;3.28;;;5.10;99.90;;;;;;5096335;28;20484;-84
2022/01/05 07:28:18;;;;;;;21.52;2.90;;;5.20;99.90;;;;;;5132439;27;20079;-82
2022/01/05 07:30:44;;;;;;;21.05;3.03;;;5.20;99.90;;;;;;5098741;27;20039;-85
2022/01/05 07:33:09;;;;;;;24.35;3.50;;;5.30;99.90;;;;;;5112766;27;20078;-83
2022/01/05 07:35:35;;;;;;;17.88;2.75;;;5.10;99.90;;;;;;5085106;28;20500;-82
2022/01/05 07:38:01;;;;;;;19.83;2.70;;;5.10;99.90;;;;;;5096067;28;20065;-82
2022/01/05 07:40:26;;;;;;;32.53;3.50;;;5.10;99.90;;;;;;5072860;27;20051;-80
2022/01/05 07:42:52;;;;;;;27.55;3.13;;;5.00;99.90;;;;;;5099169;27;20047;-81
2022/01/05 07:45:18;;;;;;;26.55;4.30;;;5.00;99.90;;;;;;5116356;27;20510;-83
2022/01/05 07:47:44;;;;;;;27.95;3.53;;;5.20;99.90;;;;;;5113271;27;20047;-85
2022/01/05 07:50:14;;;;;;;31.63;5.72;;;5.30;99.90;;;;;;5096496;27;20043;-81
2022/01/05 07:52:46;;;;;;;36.20;4.28;;;5.40;99.90;;;;;;5095750;28;20551;-80
2022/01/05 07:55:12;;;;;;;32.60;5.00;;;5.60;99.90;;;;;;5096732;27;20051;-81
2022/01/05 07:57:38;;;;;;;19.02;3.60;;;5.70;99.90;;;;;;5111868;28;20174;-83
2022/01/05 08:00:06;;;;;;;23.38;3.35;;;5.70;99.90;;;;;;5095667;28;20423;-83
2022/01/05 08:02:32;;;;;;;13.82;2.47;;;5.60;99.90;;;;;;5106963;27;20054;-81
2022/01/05 08:04:58;;;;;;;18.27;2.72;;;5.50;99.90;;;;;;5086708;27;20043;-80
2022/01/05 08:07:23;;;;;;;18.73;4.07;;;5.40;99.90;;;;;;5119752;27;20117;-80
2022/01/05 08:09:49;;;;;;;22.23;3.63;;;5.40;99.90;;;;;;5096105;27;20043;-84
2022/01/05 08:12:14;;;;;;;27.73;3.40;;;5.40;99.90;;;;;;5096366;28;20044;-82
2022/01/05 08:14:40;;;;;;;27.27;3.53;;;5.40;99.90;;;;;;5091835;27;20096;-83
2022/01/05 08:17:06;;;;;;;26.55;3.42;;;5.40;99.90;;;;;;5118457;27;20043;-82
2022/01/05 08:19:32;;;;;;;19.23;3.25;;;5.50;99.90;;;;;;5106983;27;20433;-81
2022/01/05 08:21:58;;;;;;;24.70;3.30;;;5.60;99.90;;;;;;5115279;27;20484;-81
2022/01/05 08:24:26;;;;;;;25.30;3.08;;;5.70;99.90;;;;;;5100171;27;20077;-81
2022/01/05 08:26:52;;;;;;;9.07;1.95;;;5.80;99.90;;;;;;5078557;28;20069;-82
2022/01/05 08:29:18;;;;;;;16.15;3.63;;;5.80;99.90;;;;;;5094383;28;20047;-83
2022/01/05 08:31:43;;;;;;;13.57;2.53;;;5.60;99.90;;;;;;5080060;28;20039;-80
2022/01/05 08:34:10;;;;;;;13.13;1.60;;;5.50;99.90;;;;;;5086095;28;20048;-79
2022/01/05 08:36:36;;;;;;;7.60;1.27;;;5.40;99.90;;;;;;5116264;27;20059;-81
2022/01/05 08:39:02;;;;;;;14.85;2.80;;;5.50;99.90;;;;;;5081355;28;20043;-80
2022/01/05 08:41:28;;;;;;;20.35;2.30;;;5.60;99.90;;;;;;5096458;28;20039;-86
2022/01/05 08:43:54;;;;;;;19.70;3.25;;;5.50;99.90;;;;;;5077176;28;20669;-81
2022/01/05 08:46:21;;;;;;;18.08;2.72;;;5.40;99.90;;;;;;5091586;28;20035;-81
2022/01/05 08:48:47;;;;;;;22.75;2.92;;;5.40;99.90;;;;;;5096589;28;20047;-81
2022/01/05 08:51:12;;;;;;;27.75;3.95;;;5.50;99.90;;;;;;5097039;28;20062;-83
2022/01/05 08:53:38;;;;;;;29.13;4.43;;;5.60;99.90;;;;;;5112731;28;20076;-80
2022/01/05 08:56:04;;;;;;;30.08;4.28;;;5.70;99.90;;;;;;5089976;28;20500;-82
2022/01/05 08:58:30;;;;;;;28.90;4.13;;;5.80;99.90;;;;;;5079069;28;20054;-84
2022/01/05 09:00:56;;;;;;;29.15;3.90;;;5.90;99.90;;;;;;5108248;28;20047;-86
2022/01/05 09:03:21;;;;;;;30.88;4.30;;;6.00;99.90;;;;;;5114749;28;20107;-81
2022/01/05 09:05:47;;;;;;;29.60;5.03;;;6.10;99.90;;;;;;5098213;28;20040;-81
2022/01/05 09:08:13;;;;;;;34.08;4.93;;;6.20;99.90;;;;;;5080592;28;20466;-85
2022/01/05 09:10:40;;;;;;;26.67;4.10;;;6.20;99.90;;;;;;5128568;28;20060;-81
2022/01/05 09:13:09;;;;;;;30.13;3.75;;;6.10;99.90;;;;;;5075001;28;20116;-81
2022/01/05 09:15:35;;;;;;;24.30;3.95;;;6.00;99.90;;;;;;5090532;28;20043;-86
2022/01/05 09:18:01;;;;;;;22.80;4.07;;;5.90;99.90;;;;;;5094966;27;20046;-84
2022/01/05 09:20:27;;;;;;;22.08;3.70;;;5.90;99.90;;;;;;5113370;27;20039;-84
2022/01/05 09:22:55;;;;;;;22.77;3.97;;;6.00;99.90;;;;;;5126795;27;20088;-83
2022/01/05 09:25:22;;;;;;;25.08;3.45;;;6.20;99.90;;;;;;5111625;28;20047;-80
2022/01/05 09:27:48;;;;;;;18.48;3.17;;;6.20;99.90;;;;;;5093100;27;20248;-81
2022/01/05 09:30:15;;;;;;;17.95;2.88;;;6.20;99.90;;;;;;5121886;27;20057;-81
2022/01/05 09:32:41;;;;;;;13.68;2.40;;;5.90;99.90;;;;;;5090461;27;20502;-81
2022/01/05 09:35:09;;;;;;;8.52;2.10;;;5.80;99.90;;;;;;5117030;27;20047;-83
2022/01/05 09:37:40;;;;;;;14.38;1.77;;;5.80;99.90;;;;;;5121839;27;20087;-80
2022/01/05 09:42:51;;;;;;;19.83;3.28;;;5.90;99.90;;;;;;5127238;27;20055;-79
2022/01/05 09:45:18;;;;;;;25.67;4.63;;;6.00;99.90;;;;;;5098685;27;20055;-81
2022/01/05 09:48:16;;;;;;;14.10;2.42;;;6.10;99.90;;;;;;5102544;27;20134;-82
2022/01/05 09:50:53;;;;;;;19.52;3.60;;;6.20;99.90;;;;;;5108610;28;20054;-82
2022/01/05 09:53:21;;;;;;;32.40;4.05;;;6.30;99.90;;;;;;5114742;28;20047;-80
2022/01/05 09:55:51;;;;;;;31.90;6.00;;;6.40;99.90;;;;;;5093279;27;20074;-79
2022/01/05 09:58:19;;;;;;;24.15;4.10;;;6.40;99.90;;;;;;5124509;27;20388;-79
2022/01/05 10:00:45;;;;;;;25.00;4.55;;;6.40;99.90;;;;;;5129146;27;20079;-82
2022/01/05 10:03:14;;;;;;;20.65;3.33;;;6.60;99.90;;;;;;5114191;27;20082;-79
2022/01/05 10:05:40;;;;;;;18.40;2.83;;;6.70;99.90;;;;;;5111706;28;20092;-80
2022/01/05 10:08:06;;;;;;;23.40;3.83;;;6.80;99.90;;;;;;5090082;27;20488;-83
2022/01/05 10:10:32;;;;;;;17.88;2.55;;;6.90;99.90;;;;;;5105810;28;20107;-81
2022/01/05 10:12:58;;;;;;;24.00;4.00;;;6.90;99.90;;;;;;5097135;27;20079;-78
2022/01/05 10:15:26;;;;;;;17.67;3.55;;;6.90;99.90;;;;;;5100731;27;20086;-80
2022/01/05 10:18:15;;;;;;;22.70;3.28;;;6.90;99.90;;;;;;5116325;27;20051;-81
2022/01/05 10:20:54;;;;;;;20.70;3.50;;;7.00;99.90;;;;;;5106219;27;20043;-82
2022/01/05 10:23:39;;;;;;;29.33;3.85;;;7.00;99.90;;;;;;5092331;28;20100;-81
2022/01/05 10:26:34;;;;;;;31.90;4.30;;;6.90;99.90;;;;;;5106189;27;20118;-83
2022/01/05 10:29:14;;;;;;;32.13;4.75;;;6.80;99.90;;;;;;5118784;27;20057;-82
2022/01/05 10:31:41;;;;;;;31.50;4.85;;;6.80;99.90;;;;;;5126376;27;20047;-82
2022/01/05 10:34:20;;;;;;;24.35;4.82;;;7.00;99.90;;;;;;5099434;28;20085;-81
2022/01/05 10:36:55;;;;;;;27.90;4.43;;;7.00;99.90;;;;;;5098554;28;20472;-82
2022/01/05 10:39:33;;;;;;;21.40;4.28;;;7.10;99.90;;;;;;5116893;27;20047;-79
2022/01/05 10:42:06;;;;;;;23.02;3.47;;;7.10;99.90;;;;;;5107204;28;20138;-82
2022/01/05 10:44:32;;;;;;;26.80;4.80;;;7.10;99.90;;;;;;5113971;27;20135;-81
2022/01/05 10:47:00;;;;;;;31.73;4.75;;;7.20;99.90;;;;;;5097815;27;20142;-80
2022/01/05 10:49:30;;;;;;;30.30;4.10;;;7.30;99.90;;;;;;5071410;27;20695;-80
2022/01/05 10:51:59;;;;;;;33.30;5.80;;;7.40;99.90;;;;;;5125109;27;20055;-81
2022/01/05 10:54:28;;;;;;;30.92;3.85;;;7.40;99.90;;;;;;5086738;27;20626;-80
2022/01/05 10:56:54;;;;;;;26.45;3.20;;;7.40;99.90;;;;;;5104790;28;20043;-81
2022/01/05 10:59:35;;;;;;;12.73;2.72;;;7.40;99.90;;;;;;5110938;27;20043;-80
2022/01/05 11:02:23;;;;;;;13.77;3.00;;;7.40;99.90;;;;;;5108710;27;20551;-84
2022/01/05 11:04:59;;;;;;;13.63;2.53;;;7.30;99.90;;;;;;5109473;27;20616;-82
2022/01/05 11:07:31;;;;;;;13.50;2.20;;;7.20;99.90;;;;;;5106609;27;20079;-84
2022/01/05 11:10:06;;;;;;;14.57;2.28;;;7.20;99.90;;;;;;5110312;27;20040;-84
2022/01/05 11:12:34;;;;;;;22.80;2.80;;;7.30;99.90;;;;;;5110030;27;21716;-83
2022/01/05 11:15:28;;;;;;;20.38;3.00;;;7.30;99.90;;;;;;5122976;27;20130;-82
2022/01/05 11:18:12;;;;;;;22.10;3.22;;;7.50;99.90;;;;;;5126680;27;20043;-80
2022/01/05 11:21:05;;;;;;;25.55;3.80;;;7.70;99.90;;;;;;5109201;28;20039;-84
2022/01/05 11:23:32;;;;;;;18.23;3.22;;;7.90;99.90;;;;;;5081097;27;20124;-84
2022/01/05 11:26:00;;;;;;;20.75;3.42;;;8.00;99.90;;;;;;5117493;27;20383;-81
2022/01/05 11:28:27;;;;;;;23.27;3.88;;;8.00;99.90;;;;;;5129894;27;20050;-83
2022/01/05 11:30:55;;;;;;;21.85;5.63;;;8.10;99.90;;;;;;5133169;27;20153;-83
2022/01/05 11:33:21;;;;;;;26.75;4.63;;;8.20;99.90;;;;;;5098039;28;20054;-81
2022/01/05 11:35:49;;;;;;;18.83;3.25;;;8.30;99.90;;;;;;5089734;27;20039;-84
2022/01/05 11:38:15;;;;;;;23.63;4.05;;;8.40;99.90;;;;;;5112143;27;20082;-82
2022/01/05 11:40:54;;;;;;;26.65;4.72;;;8.40;99.90;;;;;;5100672;27;20115;-83
2022/01/05 11:43:33;;;;;;;29.60;4.18;;;8.30;99.90;;;;;;5103818;27;20043;-83
2022/01/05 11:46:19;;;;;;;24.10;4.50;;;8.10;99.90;;;;;;5104361;28;20070;-85
2022/01/05 11:48:59;;;;;;;32.58;5.03;;;7.90;99.90;;;;;;5097662;27;20047;-81
2022/01/05 11:51:30;;;;;;;27.92;4.38;;;7.90;99.90;;;;;;5111209;27;20053;-83
2022/01/05 11:54:12;;;;;;;22.30;4.05;;;7.90;99.90;;;;;;5122632;27;20043;-83
2022/01/05 11:56:47;;;;;;;21.63;4.18;;;7.70;99.90;;;;;;5105750;27;20043;-82
2022/01/05 11:59:33;;;;;;;20.30;3.53;;;7.60;99.90;;;;;;5109810;27;20534;-86
2022/01/05 12:02:14;;;;;;;20.17;3.42;;;7.60;99.90;;;;;;5125830;27;20109;-82
2022/01/05 12:04:52;;;;;;;15.65;2.95;;;7.50;99.90;;;;;;5102330;27;20388;-85
2022/01/05 12:07:46;;;;;;;22.40;3.08;;;7.40;99.90;;;;;;5100096;28;20035;-84
2022/01/05 12:10:23;;;;;;;26.40;4.20;;;7.30;99.90;;;;;;5106937;27;20373;-87
2022/01/05 12:13:07;;;;;;;30.17;4.28;;;7.50;99.90;;;;;;5120807;27;20499;-83
2022/01/05 12:15:40;;;;;;;25.05;4.05;;;7.70;99.90;;;;;;5090649;27;20053;-85
2022/01/05 12:18:07;;;;;;;23.63;3.63;;;7.80;99.90;;;;;;5108625;27;20090;-84
2022/01/05 12:20:35;;;;;;;32.72;4.57;;;7.80;99.90;;;;;;5094473;27;20126;-85
2022/01/05 12:23:25;;;;;;;33.47;5.47;;;7.80;99.90;;;;;;5105154;28;20484;-82
2022/01/05 12:26:03;;;;;;;27.55;4.80;;;7.90;99.90;;;;;;5109759;28;20054;-86
2022/01/05 12:28:54;;;;;;;19.48;3.85;;;8.10;99.90;;;;;;5105432;28;20051;-83
2022/01/05 12:31:56;;;;;;;17.85;3.40;;;8.00;99.90;;;;;;5091827;28;20057;-82
2022/01/05 12:34:54;;;;;;;20.45;3.05;;;7.80;99.90;;;;;;5113404;28;20100;-81
2022/01/05 12:37:51;;;;;;;30.90;3.80;;;7.80;99.90;;;;;;5119514;27;20051;-86
2022/01/05 12:40:45;;;;;;;29.60;4.93;;;7.70;99.90;;;;;;5108929;28;20043;-84
2022/01/05 12:43:12;;;;;;;25.35;4.10;;;7.70;99.90;;;;;;5110440;28;20074;-85
2022/01/05 12:45:55;;;;;;;18.85;5.20;;;7.70;99.90;;;;;;5101976;28;20043;-85
2022/01/05 12:48:33;;;;;;;28.40;4.18;;;7.70;99.90;;;;;;5096900;28;20054;-84
2022/01/05 12:51:17;;;;;;;22.52;4.55;;;7.70;99.90;;;;;;5116389;28;20135;-86
2022/01/05 12:54:06;;;;;;;21.00;4.32;;;7.70;99.90;;;;;;5132973;27;20043;-85
2022/01/05 12:56:51;;;;;;;26.55;4.03;;;7.80;99.90;;;;;;5131468;27;20387;-85